createdAt,value
2023-02-24T00:00:48.283Z,170.00
2023-02-24T00:01:48.283Z,172.49
2023-02-24T00:02:48.332Z,171.02
2023-02-24T00:03:48.354Z,171.16
2023-02-24T00:04:48.265Z,167.59
2023-02-24T00:05:48.266Z,170.90
2023-02-24T00:06:48.272Z,169.72
2023-02-24T00:07:48.260Z,170.43
2023-02-24T00:08:48.255Z,172.14
2023-02-24T00:09:48.251Z,173.34
2023-02-24T00:10:48.255Z,176.24
2023-02-24T00:11:48.238Z,175.32
2023-02-24T00:12:48.237Z,174.84
2023-02-24T00:13:48.230Z,175.53
2023-02-24T00:14:48.213Z,174.37
2023-02-24T00:15:48.207Z,174.15
2023-02-24T00:16:48.407Z,174.39
2023-02-24T00:17:48.201Z,172.58
2023-02-24T00:18:48.176Z,172.47
2023-02-24T00:19:48.173Z,172.50
2023-02-24T00:20:48.169Z,172.87
2023-02-24T00:21:48.178Z,172.81
2023-02-24T00:22:48.155Z,171.36
2023-02-24T00:23:48.148Z,170.46
2023-02-24T00:24:48.146Z,173.89
2023-02-24T00:25:48.149Z,170.61
2023-02-24T00:26:48.127Z,173.32
2023-02-24T00:27:48.116Z,174.29
2023-02-24T00:28:48.101Z,175.35
2023-02-24T00:29:48.186Z,175.87
2023-02-24T00:30:48.121Z,174.59
2023-02-24T00:31:48.220Z,173.42
2023-02-24T00:32:48.203Z,171.95
2023-02-24T00:33:48.072Z,174.22
2023-02-24T00:34:48.065Z,171.77
2023-02-24T00:35:48.065Z,170.92
2023-02-24T00:36:48.047Z,169.37
2023-02-24T00:37:48.052Z,171.11
2023-02-24T00:38:48.051Z,169.51
2023-02-24T00:39:48.043Z,170.04
2023-02-24T00:40:48.018Z,170.28
2023-02-24T00:41:48.013Z,166.98
2023-02-24T00:42:47.995Z,169.55
2023-02-24T00:43:48.012Z,172.98
2023-02-24T00:44:47.997Z,174.39
2023-02-24T00:45:47.975Z,173.19
2023-02-24T00:46:47.965Z,171.47
2023-02-24T00:47:47.959Z,170.70
2023-02-24T00:48:47.971Z,170.26
2023-02-24T00:49:47.946Z,171.98
2023-02-24T00:50:47.932Z,173.52
2023-02-24T00:51:47.925Z,174.17
2023-02-24T00:52:47.907Z,174.00
2023-02-24T00:53:47.907Z,176.04
2023-02-24T00:54:47.900Z,176.34
2023-02-24T00:55:47.882Z,174.34
2023-02-24T00:56:47.878Z,174.87
2023-02-24T00:57:47.865Z,176.22
2023-02-24T00:58:47.865Z,175.19
2023-02-24T00:59:47.946Z,175.22
2023-02-24T01:00:47.832Z,175.26
2023-02-24T01:01:47.887Z,177.42
2023-02-24T01:02:47.827Z,177.79
2023-02-24T01:03:47.861Z,173.90
2023-02-24T01:04:47.770Z,173.06
2023-02-24T01:05:47.770Z,173.88
2023-02-24T01:06:47.762Z,173.14
2023-02-24T01:07:47.787Z,175.06
2023-02-24T01:08:47.745Z,175.65
2023-02-24T01:09:47.734Z,177.11
2023-02-24T01:10:47.729Z,174.47
2023-02-24T01:11:47.738Z,176.19
2023-02-24T01:12:47.708Z,175.48
2023-02-24T01:13:47.704Z,174.15
2023-02-24T01:14:47.845Z,175.16
2023-02-24T01:15:47.719Z,176.58
2023-02-24T01:16:47.685Z,171.03
2023-02-24T01:17:47.684Z,172.10
2023-02-24T01:18:47.679Z,171.77
2023-02-24T01:19:47.667Z,172.50
2023-02-24T01:20:47.670Z,174.34
2023-02-24T01:21:47.665Z,176.42
2023-02-24T01:22:47.665Z,178.12
2023-02-24T01:23:47.665Z,175.48
2023-02-24T01:24:47.656Z,177.13
2023-02-24T01:25:47.651Z,178.25
2023-02-24T01:26:47.641Z,175.79
2023-02-24T01:27:47.653Z,176.09
2023-02-24T01:28:47.650Z,175.85
2023-02-24T01:29:47.682Z,177.34
2023-02-24T01:30:47.655Z,178.33
2023-02-24T01:31:49.887Z,178.57
2023-02-24T01:32:48.192Z,179.64
2023-02-24T01:33:47.654Z,179.53
2023-02-24T01:34:47.651Z,177.93
2023-02-24T01:35:47.650Z,180.12
2023-02-24T01:36:47.633Z,178.73
2023-02-24T01:37:47.627Z,176.71
2023-02-24T01:38:47.628Z,179.75
2023-02-24T01:39:47.671Z,179.18
2023-02-24T01:40:47.641Z,173.95
2023-02-24T01:41:47.695Z,177.88
2023-02-24T01:42:47.933Z,177.89
2023-02-24T01:43:47.748Z,177.95
2023-02-24T01:44:47.916Z,178.22
2023-02-24T01:45:47.740Z,178.06
2023-02-24T01:46:47.748Z,178.21
2023-02-24T01:47:47.772Z,177.76
2023-02-24T01:48:47.761Z,178.79
2023-02-24T01:49:47.739Z,178.63
2023-02-24T01:50:47.725Z,176.95
2023-02-24T01:51:47.717Z,179.06
2023-02-24T01:52:47.724Z,180.23
2023-02-24T01:53:47.711Z,180.66
2023-02-24T01:54:47.702Z,180.31
2023-02-24T01:55:47.694Z,179.03
2023-02-24T01:56:47.689Z,178.24
2023-02-24T01:57:47.684Z,181.01
2023-02-24T01:58:47.673Z,180.75
2023-02-24T01:59:47.681Z,180.43
2023-02-24T02:00:47.722Z,178.88
2023-02-24T02:01:47.732Z,180.14
2023-02-24T02:02:47.851Z,179.19
2023-02-24T02:03:47.638Z,178.67
2023-02-24T02:04:47.655Z,181.43
2023-02-24T02:05:47.642Z,180.47
2023-02-24T02:06:47.616Z,180.19
2023-02-24T02:07:47.607Z,180.90
2023-02-24T02:08:47.611Z,181.55
2023-02-24T02:09:47.600Z,180.32
2023-02-24T02:10:47.620Z,179.53
2023-02-24T02:11:47.615Z,180.94
2023-02-24T02:12:47.636Z,176.28
2023-02-24T02:13:47.700Z,179.88
2023-02-24T02:14:47.638Z,179.62
2023-02-24T02:15:47.643Z,181.30
2023-02-24T02:16:47.646Z,180.39
2023-02-24T02:17:47.649Z,178.62
2023-02-24T02:18:47.663Z,178.76
2023-02-24T02:19:47.686Z,179.67
2023-02-24T02:20:47.671Z,179.42
2023-02-24T02:21:47.690Z,178.38
2023-02-24T02:22:47.684Z,179.31
2023-02-24T02:23:47.690Z,181.66
2023-02-24T02:24:47.697Z,182.21
2023-02-24T02:25:47.694Z,180.68
2023-02-24T02:26:47.687Z,178.90
2023-02-24T02:27:47.701Z,178.98
2023-02-24T02:28:47.705Z,179.39
2023-02-24T02:29:47.716Z,180.32
2023-02-24T02:30:47.742Z,178.75
2023-02-24T02:31:47.789Z,179.61
2023-02-24T02:32:47.860Z,180.04
2023-02-24T02:33:47.736Z,180.63
2023-02-24T02:34:47.750Z,178.30
2023-02-24T02:35:47.741Z,178.31
2023-02-24T02:36:47.741Z,179.25
2023-02-24T02:37:47.799Z,178.04
2023-02-24T02:38:47.754Z,177.46
2023-02-24T02:39:47.767Z,178.76
2023-02-24T02:40:47.762Z,181.37
2023-02-24T02:41:47.771Z,179.05
2023-02-24T02:42:47.774Z,178.62
2023-02-24T02:43:47.789Z,180.28
2023-02-24T02:44:47.793Z,179.24
2023-02-24T02:45:47.980Z,178.25
2023-02-24T02:46:47.788Z,178.81
2023-02-24T02:47:47.776Z,180.64
2023-02-24T02:48:47.802Z,179.38
2023-02-24T02:49:47.788Z,178.20
2023-02-24T02:50:47.801Z,178.95
2023-02-24T02:51:47.794Z,173.29
2023-02-24T02:52:47.791Z,177.30
2023-02-24T02:53:47.800Z,178.04
2023-02-24T02:54:47.801Z,177.59
2023-02-24T02:55:47.836Z,175.07
2023-02-24T02:56:47.812Z,176.73
2023-02-24T02:57:47.835Z,175.09
2023-02-24T02:58:47.836Z,178.51
2023-02-24T02:59:47.825Z,176.45
2023-02-24T03:00:47.851Z,178.61
2023-02-24T03:01:47.836Z,175.72
2023-02-24T03:02:47.846Z,178.03
2023-02-24T03:03:47.845Z,179.93
2023-02-24T03:04:47.907Z,180.37
2023-02-24T03:05:47.867Z,178.68
2023-02-24T03:06:47.884Z,179.12
2023-02-24T03:07:47.857Z,180.60
2023-02-24T03:08:47.867Z,179.24
2023-02-24T03:09:47.875Z,178.89
2023-02-24T03:10:47.875Z,179.68
2023-02-24T03:11:47.876Z,179.56
2023-02-24T03:12:47.898Z,177.61
2023-02-24T03:13:47.879Z,176.84
2023-02-24T03:14:47.881Z,178.55
2023-02-24T03:15:47.888Z,179.93
2023-02-24T03:16:47.892Z,181.46
2023-02-24T03:17:47.855Z,178.11
2023-02-24T03:18:47.851Z,178.53
2023-02-24T03:19:47.841Z,178.28
2023-02-24T03:20:47.821Z,179.51
2023-02-24T03:21:47.812Z,178.27
2023-02-24T03:22:47.808Z,175.80
2023-02-24T03:23:47.808Z,177.00
2023-02-24T03:24:47.794Z,175.45
2023-02-24T03:25:47.799Z,178.05
2023-02-24T03:26:47.775Z,179.45
2023-02-24T03:27:47.778Z,180.27
2023-02-24T03:28:47.764Z,180.49
2023-02-24T03:29:47.770Z,179.75
2023-02-24T03:30:47.817Z,179.16
2023-02-24T03:31:47.854Z,179.75
2023-02-24T03:32:47.888Z,179.21
2023-02-24T03:33:47.737Z,179.81
2023-02-24T03:34:47.724Z,179.15
2023-02-24T03:35:47.725Z,178.02
2023-02-24T03:36:47.718Z,177.98
2023-02-24T03:37:47.701Z,179.13
2023-02-24T03:38:47.692Z,181.15
2023-02-24T03:39:47.707Z,180.66
2023-02-24T03:40:47.683Z,180.21
2023-02-24T03:41:47.682Z,180.93
2023-02-24T03:42:47.662Z,182.47
2023-02-24T03:43:47.683Z,183.27
2023-02-24T03:44:47.655Z,182.68
2023-02-24T03:45:47.663Z,182.06
2023-02-24T03:46:47.645Z,181.23
2023-02-24T03:47:47.638Z,181.21
2023-02-24T03:48:47.645Z,183.96
2023-02-24T03:49:47.620Z,183.81
2023-02-24T03:50:47.612Z,184.10
2023-02-24T03:51:47.614Z,184.26
2023-02-24T03:52:47.616Z,183.78
2023-02-24T03:53:47.596Z,186.37
2023-02-24T03:54:47.606Z,185.80
2023-02-24T03:55:47.599Z,188.09
2023-02-24T03:56:47.591Z,187.67
2023-02-24T03:57:47.576Z,189.69
2023-02-24T03:58:47.599Z,190.52
2023-02-24T03:59:47.619Z,190.58
2023-02-24T04:00:47.555Z,190.68
2023-02-24T04:01:47.572Z,190.53
2023-02-24T04:02:47.642Z,191.33
2023-02-24T04:03:47.528Z,190.99
2023-02-24T04:04:47.570Z,193.35
2023-02-24T04:05:47.565Z,193.89
2023-02-24T04:06:47.506Z,194.43
2023-02-24T04:07:47.506Z,194.67
2023-02-24T04:08:47.512Z,196.88
2023-02-24T04:09:47.473Z,194.38
2023-02-24T04:10:47.464Z,197.11
2023-02-24T04:11:47.472Z,197.43
2023-02-24T04:12:47.536Z,198.08
2023-02-24T04:13:47.441Z,197.66
2023-02-24T04:14:47.431Z,198.93
2023-02-24T04:15:47.452Z,197.87
2023-02-24T04:16:47.408Z,199.86
2023-02-24T04:17:47.420Z,200.22
2023-02-24T04:18:47.382Z,200.04
2023-02-24T04:19:47.364Z,201.54
2023-02-24T04:20:47.356Z,201.09
2023-02-24T04:21:47.349Z,202.05
2023-02-24T04:22:47.324Z,203.52
2023-02-24T04:23:47.317Z,203.20
2023-02-24T04:24:47.298Z,202.45
2023-02-24T04:25:47.291Z,205.63
2023-02-24T04:26:47.291Z,204.11
2023-02-24T04:27:47.261Z,205.11
2023-02-24T04:28:47.266Z,204.73
2023-02-24T04:29:47.249Z,204.65
2023-02-24T04:30:47.307Z,204.70
2023-02-24T04:31:47.411Z,204.23
2023-02-24T04:32:47.236Z,204.85
2023-02-24T04:33:47.196Z,205.69
2023-02-24T04:34:47.193Z,204.82
2023-02-24T04:35:47.176Z,204.92
2023-02-24T04:36:47.166Z,205.16
2023-02-24T04:37:47.155Z,206.01
2023-02-24T04:38:47.145Z,206.73
2023-02-24T04:39:47.139Z,207.94
2023-02-24T04:40:47.124Z,208.20
2023-02-24T04:41:47.128Z,206.76
2023-02-24T04:42:47.123Z,208.20
2023-02-24T04:43:47.099Z,208.94
2023-02-24T04:44:47.089Z,209.22
2023-02-24T04:45:47.087Z,207.28
2023-02-24T04:46:47.145Z,210.03
2023-02-24T04:47:47.063Z,209.27
2023-02-24T04:48:47.060Z,207.22
2023-02-24T04:49:47.048Z,208.23
2023-02-24T04:50:47.030Z,210.04
2023-02-24T04:51:47.031Z,211.22
2023-02-24T04:52:47.026Z,211.18
2023-02-24T04:53:47.023Z,211.29
2023-02-24T04:54:47.024Z,212.51
2023-02-24T04:55:46.998Z,212.09
2023-02-24T04:56:46.995Z,211.72
2023-02-24T04:57:46.993Z,212.68
2023-02-24T04:58:46.984Z,213.04
2023-02-24T04:59:47.038Z,212.37
2023-02-24T05:00:46.962Z,213.63
2023-02-24T05:01:46.961Z,211.90
2023-02-24T05:02:46.972Z,213.23
2023-02-24T05:03:46.994Z,213.50
2023-02-24T05:04:46.991Z,214.13
2023-02-24T05:05:46.927Z,214.57
2023-02-24T05:06:46.914Z,215.41
2023-02-24T05:07:46.921Z,213.31
2023-02-24T05:08:46.911Z,213.16
2023-02-24T05:09:46.893Z,214.19
2023-02-24T05:10:46.902Z,214.25
2023-02-24T05:11:46.880Z,213.33
2023-02-24T05:12:46.898Z,212.83
2023-02-24T05:13:46.876Z,214.38
2023-02-24T05:14:46.973Z,213.60
2023-02-24T05:15:46.858Z,213.27
2023-02-24T05:16:46.841Z,212.09
2023-02-24T05:17:46.828Z,211.54
2023-02-24T05:18:46.802Z,210.48
2023-02-24T05:19:46.793Z,209.36
2023-02-24T05:20:46.816Z,209.22
2023-02-24T05:21:46.771Z,207.46
2023-02-24T05:22:46.764Z,205.72
2023-02-24T05:23:46.928Z,202.87
2023-02-24T05:24:46.751Z,205.03
2023-02-24T05:25:46.747Z,204.15
2023-02-24T05:26:46.731Z,203.40
2023-02-24T05:27:46.707Z,203.71
2023-02-24T05:28:46.710Z,202.57
2023-02-24T05:29:46.697Z,200.45
2023-02-24T05:30:46.701Z,202.06
2023-02-24T05:31:46.784Z,201.62
2023-02-24T05:32:46.679Z,201.86
2023-02-24T05:33:46.650Z,198.88
2023-02-24T05:34:46.627Z,201.72
2023-02-24T05:35:46.613Z,200.84
2023-02-24T05:36:46.604Z,198.45
2023-02-24T05:37:46.582Z,198.60
2023-02-24T05:38:46.583Z,199.70
2023-02-24T05:39:46.561Z,196.23
2023-02-24T05:40:46.551Z,198.88
2023-02-24T05:41:46.533Z,193.81
2023-02-24T05:42:46.528Z,196.62
2023-02-24T05:43:46.522Z,195.65
2023-02-24T05:44:46.523Z,194.05
2023-02-24T05:45:46.535Z,195.11
2023-02-24T05:46:46.593Z,195.91
2023-02-24T05:47:46.538Z,196.15
2023-02-24T05:48:46.501Z,195.46
2023-02-24T05:49:46.495Z,193.68
2023-02-24T05:50:46.495Z,189.49
2023-02-24T05:51:46.495Z,190.53
2023-02-24T05:52:46.497Z,193.57
2023-02-24T05:53:46.501Z,195.21
2023-02-24T05:54:46.481Z,194.47
2023-02-24T05:55:46.470Z,193.50
2023-02-24T05:56:46.459Z,194.12
2023-02-24T05:57:46.439Z,191.32
2023-02-24T05:58:46.454Z,191.77
2023-02-24T05:59:46.420Z,192.89
2023-02-24T06:00:46.423Z,193.73
2023-02-24T06:01:46.455Z,193.49
2023-02-24T06:02:46.413Z,190.61
2023-02-24T06:03:46.382Z,190.03
2023-02-24T06:04:46.389Z,192.35
2023-02-24T06:05:46.357Z,192.69
2023-02-24T06:06:46.341Z,193.82
2023-02-24T06:07:46.333Z,191.78
2023-02-24T06:08:46.336Z,191.56
2023-02-24T06:09:46.333Z,192.07
2023-02-24T06:10:46.327Z,192.13
2023-02-24T06:11:46.355Z,192.02
2023-02-24T06:12:46.312Z,191.57
2023-02-24T06:13:46.307Z,192.46
2023-02-24T06:14:46.303Z,190.66
2023-02-24T06:15:46.317Z,190.01
2023-02-24T06:16:46.379Z,187.50
2023-02-24T06:17:46.278Z,187.57
2023-02-24T06:18:46.304Z,187.99
2023-02-24T06:19:46.268Z,187.87
2023-02-24T06:20:46.263Z,188.88
2023-02-24T06:21:46.249Z,188.53
2023-02-24T06:22:46.297Z,188.27
2023-02-24T06:23:46.239Z,187.80
2023-02-24T06:24:46.244Z,186.34
2023-02-24T06:25:46.226Z,186.73
2023-02-24T06:26:46.222Z,186.53
2023-02-24T06:27:46.207Z,189.14
2023-02-24T06:28:46.216Z,189.27
2023-02-24T06:29:46.194Z,189.24
2023-02-24T06:30:46.257Z,190.41
2023-02-24T06:31:46.261Z,190.50
2023-02-24T06:32:46.301Z,189.56
2023-02-24T06:33:46.164Z,190.46
2023-02-24T06:34:46.164Z,192.72
2023-02-24T06:35:46.145Z,198.16
2023-02-24T06:36:46.126Z,204.04
2023-02-24T06:37:46.128Z,208.74
2023-02-24T06:38:46.105Z,213.37
2023-02-24T06:39:46.117Z,218.61
2023-02-24T06:40:46.069Z,235.24
2023-02-24T06:41:46.056Z,241.29
2023-02-24T06:42:46.051Z,246.65
2023-02-24T06:43:46.037Z,249.63
2023-02-24T06:44:46.019Z,249.63
2023-02-24T06:45:46.033Z,249.98
2023-02-24T06:46:45.977Z,250.00
2023-02-24T06:47:45.952Z,250.00
2023-02-24T06:48:46.032Z,250.15
2023-02-24T06:49:45.928Z,250.82
2023-02-24T06:50:45.917Z,252.52
2023-02-24T06:51:45.921Z,255.57
2023-02-24T06:52:45.882Z,250.55
2023-02-24T06:53:45.856Z,252.84
2023-02-24T06:54:45.850Z,258.91
2023-02-24T06:55:45.823Z,268.38
2023-02-24T06:56:45.834Z,283.04
2023-02-24T06:57:45.791Z,273.62
2023-02-24T06:58:45.766Z,263.24
2023-02-24T06:59:45.768Z,253.15
2023-02-24T07:00:45.741Z,250.00
2023-02-24T07:33:45.952Z,249.90
2023-02-24T09:02:43.841Z,26.28
2023-02-24T14:22:39.686Z,207.00
2023-02-24T14:23:39.651Z,208.08
2023-02-24T14:24:39.626Z,207.30
2023-02-24T14:25:39.590Z,208.32
2023-02-24T14:26:39.555Z,207.00
2023-02-24T14:27:39.521Z,206.98
2023-02-24T14:28:39.495Z,206.79
2023-02-24T14:29:44.085Z,207.72
2023-02-24T14:30:40.448Z,207.74
2023-02-24T14:31:39.725Z,207.74
2023-02-24T14:32:39.372Z,207.73
2023-02-24T14:33:39.386Z,207.56
2023-02-24T14:34:39.261Z,206.88
2023-02-24T14:35:39.229Z,207.30
2023-02-24T14:36:39.205Z,207.30
2023-02-24T14:37:39.168Z,206.80
2023-02-24T14:38:39.158Z,206.99
2023-02-24T14:39:39.095Z,206.52
2023-02-24T14:40:39.068Z,206.10
2023-02-24T14:41:39.034Z,207.51
2023-02-24T14:42:39.026Z,205.91
2023-02-24T14:43:39.002Z,206.39
2023-02-24T14:44:38.973Z,206.37
2023-02-24T14:45:38.957Z,206.21
2023-02-24T14:46:38.941Z,205.39
2023-02-24T14:47:38.867Z,205.61
2023-02-24T14:48:38.844Z,206.35
2023-02-24T14:49:38.843Z,205.91
2023-02-24T14:50:38.864Z,206.54
2023-02-24T14:51:38.742Z,205.71
2023-02-24T14:52:38.705Z,205.38
2023-02-24T14:53:38.681Z,204.77
2023-02-24T14:54:38.646Z,205.81
2023-02-24T14:55:38.645Z,205.14
2023-02-24T14:56:38.582Z,205.07
2023-02-24T14:57:38.552Z,204.41
2023-02-24T14:58:38.577Z,205.95
2023-02-24T14:59:38.514Z,205.87
2023-02-24T15:00:38.486Z,205.30
2023-02-24T15:01:38.505Z,205.23
2023-02-24T15:02:38.418Z,205.07
2023-02-24T15:03:38.485Z,204.98
2023-02-24T15:04:38.368Z,205.23
2023-02-24T15:05:38.324Z,205.50
2023-02-24T15:06:38.303Z,204.17
2023-02-24T15:07:38.273Z,205.15
2023-02-24T15:08:38.245Z,204.74
2023-02-24T15:09:38.211Z,204.95
2023-02-24T15:10:38.182Z,205.86
2023-02-24T15:11:38.165Z,205.44
2023-02-24T15:12:38.127Z,205.17
2023-02-24T15:13:38.093Z,203.74
2023-02-24T15:14:38.085Z,204.72
2023-02-24T15:15:38.073Z,204.48
2023-02-24T15:16:38.098Z,204.32
2023-02-24T15:17:38.006Z,203.95
2023-02-24T15:18:37.970Z,204.66
2023-02-24T15:19:37.950Z,204.65
2023-02-24T15:20:37.908Z,204.55
2023-02-24T15:21:37.893Z,204.58
2023-02-24T15:22:37.868Z,204.62
2023-02-24T15:23:37.832Z,204.79
2023-02-24T15:24:37.991Z,204.73
2023-02-24T15:25:42.922Z,204.76
2023-02-24T15:26:38.775Z,204.59
2023-02-24T15:27:37.768Z,204.64
2023-02-24T15:28:37.741Z,204.69
2023-02-24T15:29:37.741Z,203.81
2023-02-24T15:30:37.764Z,203.88
2023-02-24T15:31:37.819Z,204.66
2023-02-24T15:32:37.892Z,204.35
2023-02-24T15:33:37.685Z,204.01
2023-02-24T15:34:37.676Z,203.77
2023-02-24T15:35:37.656Z,203.75
2023-02-24T15:36:37.628Z,203.86
2023-02-24T15:37:37.611Z,203.42
2023-02-24T15:38:37.611Z,203.19
2023-02-24T15:39:37.584Z,203.00
2023-02-24T15:40:37.559Z,203.19
2023-02-24T15:41:37.555Z,203.06
2023-02-24T15:42:37.541Z,202.72
2023-02-24T15:43:37.538Z,202.83
2023-02-24T15:44:37.526Z,202.81
2023-02-24T15:45:37.511Z,202.94
2023-02-24T15:46:37.539Z,202.94
2023-02-24T15:47:37.479Z,202.73
2023-02-24T15:48:37.459Z,202.10
2023-02-24T15:49:37.430Z,202.05
2023-02-24T15:50:37.421Z,202.65
2023-02-24T15:51:37.393Z,202.28
2023-02-24T15:52:37.360Z,202.21
2023-02-24T15:53:37.342Z,202.05
2023-02-24T15:54:37.350Z,201.98
2023-02-24T15:55:37.287Z,201.73
2023-02-24T15:56:37.268Z,201.74
2023-02-24T15:57:37.249Z,201.09
2023-02-24T15:58:37.229Z,201.89
2023-02-24T15:59:37.222Z,201.75
2023-02-24T16:00:37.246Z,201.52
2023-02-24T16:01:37.160Z,201.52
2023-02-24T16:02:37.142Z,201.33
2023-02-24T16:03:37.164Z,201.30
2023-02-24T16:04:37.100Z,201.03
2023-02-24T16:05:37.079Z,201.23
2023-02-24T16:06:37.068Z,201.11
2023-02-24T16:07:37.032Z,200.79
2023-02-24T16:08:36.998Z,201.03
2023-02-24T16:09:36.974Z,201.03
2023-02-24T16:10:36.952Z,200.70
2023-02-24T16:11:36.918Z,201.08
2023-02-24T16:12:36.902Z,200.53
2023-02-24T16:13:36.876Z,200.39
2023-02-24T16:14:36.860Z,200.16
2023-02-24T16:15:36.847Z,200.60
2023-02-24T16:16:36.920Z,200.51
2023-02-24T16:17:36.792Z,200.29
2023-02-24T16:18:36.789Z,199.98
2023-02-24T16:19:36.756Z,199.79
2023-02-24T16:20:36.728Z,199.43
2023-02-24T16:21:36.710Z,199.86
2023-02-24T16:22:36.705Z,199.56
2023-02-24T16:23:36.674Z,199.56
2023-02-24T16:24:36.657Z,199.11
2023-02-24T16:25:36.632Z,199.54
2023-02-24T16:26:36.615Z,199.44
2023-02-24T16:27:36.595Z,198.96
2023-02-24T16:28:36.565Z,199.41
2023-02-24T16:29:36.562Z,199.03
2023-02-24T16:30:36.643Z,198.87
2023-02-24T16:31:36.781Z,198.85
2023-02-24T16:32:36.613Z,198.65
2023-02-24T16:33:51.772Z,198.32
2023-02-24T16:35:36.423Z,198.39
2023-02-24T16:36:36.410Z,198.55
2023-02-24T16:37:36.390Z,198.33
2023-02-24T16:38:36.378Z,198.65
2023-02-24T16:39:36.352Z,198.22
2023-02-24T16:40:36.336Z,197.70
2023-02-24T16:41:36.327Z,197.75
2023-02-24T16:42:36.295Z,197.81
2023-02-24T16:43:36.275Z,197.87
2023-02-24T16:44:36.269Z,197.84
2023-02-24T16:45:36.319Z,197.81
2023-02-24T16:46:36.218Z,197.91
2023-02-24T16:47:36.208Z,197.75
2023-02-24T16:48:36.178Z,197.34
2023-02-24T16:49:36.173Z,197.06
2023-02-24T16:50:36.157Z,197.85
2023-02-24T16:51:36.112Z,197.48
2023-02-24T16:52:36.095Z,197.21
2023-02-24T16:53:36.080Z,197.25
2023-02-24T17:06:35.813Z,196.63
2023-02-24T17:07:35.804Z,195.83
2023-02-24T17:08:35.770Z,195.93
2023-02-24T17:09:35.749Z,195.91
2023-02-24T17:10:35.730Z,196.04
2023-02-24T19:06:33.972Z,191.32
2023-02-24T23:50:30.136Z,180.13
2023-02-24T23:52:30.114Z,179.96
2023-02-24T23:55:30.037Z,180.17
2023-02-24T23:56:30.051Z,179.75
2023-02-24T23:57:30.018Z,179.15
2023-02-24T23:58:29.994Z,180.19
2023-02-24T23:59:29.975Z,179.89
